createdAt,value
2019-04-10T00:00:37.356Z,41.23
2019-04-10T00:03:06.158Z,38.90
2019-04-10T00:05:34.005Z,40.40
2019-04-10T00:08:01.884Z,40.73
2019-04-10T00:10:29.941Z,39.43
2019-04-10T00:13:00.411Z,38.30
2019-04-10T00:15:28.426Z,39.97
2019-04-10T00:17:55.765Z,39.27
2019-04-10T00:20:22.916Z,41.20
2019-04-10T00:22:50.677Z,39.70
2019-04-10T00:25:18.908Z,38.63
2019-04-10T00:27:47.168Z,38.80
2019-04-10T00:30:14.707Z,41.60
2019-04-10T00:32:42.074Z,38.63
2019-04-10T00:35:09.438Z,39.53
2019-04-10T00:37:37.355Z,39.27
2019-04-10T00:40:05.422Z,38.47
2019-04-10T00:42:32.851Z,38.27
2019-04-10T00:45:06.728Z,40.33
2019-04-10T00:47:41.858Z,39.20
2019-04-10T00:50:16.014Z,37.50
2019-04-10T00:52:44.168Z,39.37
2019-04-10T00:55:11.621Z,38.90
2019-04-10T00:57:39.317Z,38.43
2019-04-10T01:00:08.550Z,38.73
2019-04-10T01:02:36.581Z,40.10
2019-04-10T01:05:04.912Z,39.70
2019-04-10T01:07:37.964Z,39.60
2019-04-10T01:10:02.077Z,39.43
2019-04-10T01:12:30.086Z,38.40
2019-04-10T01:14:58.181Z,38.67
2019-04-10T01:17:26.326Z,38.93
2019-04-10T01:19:54.409Z,38.57
2019-04-10T01:22:21.736Z,39.13
2019-04-10T01:24:50.133Z,37.33
2019-04-10T01:27:18.010Z,37.00
2019-04-10T01:29:46.116Z,37.40
2019-04-10T01:32:13.525Z,36.30
2019-04-10T01:34:41.255Z,37.87
2019-04-10T01:37:08.745Z,35.70
2019-04-10T01:39:35.883Z,34.30
2019-04-10T01:42:03.993Z,32.53
2019-04-10T01:44:40.854Z,33.37
2019-04-10T01:47:08.290Z,33.23
2019-04-10T01:49:35.730Z,32.37
2019-04-10T01:52:03.341Z,31.83
2019-04-10T01:54:31.178Z,29.60
2019-04-10T01:56:58.371Z,28.80
2019-04-10T01:59:27.517Z,27.80
2019-04-10T02:02:05.443Z,28.70
2019-04-10T02:04:33.129Z,27.20
2019-04-10T02:07:00.454Z,27.30
2019-04-10T02:09:27.678Z,26.63
2019-04-10T02:11:54.864Z,26.50
2019-04-10T02:14:22.452Z,25.70
2019-04-10T02:16:49.755Z,26.57
2019-04-10T02:19:17.027Z,25.90
2019-04-10T02:21:44.314Z,25.37
2019-04-10T02:24:11.647Z,23.47
2019-04-10T02:26:38.849Z,24.20
2019-04-10T02:29:07.089Z,23.47
2019-04-10T02:31:34.645Z,22.30
2019-04-10T02:34:02.026Z,22.77
2019-04-10T02:36:31.352Z,23.47
2019-04-10T02:39:08.832Z,21.37
2019-04-10T02:41:27.962Z,21.50
2019-04-10T02:43:55.658Z,20.80
2019-04-10T02:46:22.959Z,20.40
2019-04-10T02:48:51.847Z,20.30
2019-04-10T02:51:19.976Z,19.73
2019-04-10T02:53:48.067Z,17.87
2019-04-10T02:56:16.449Z,18.47
2019-04-10T02:58:46.876Z,18.53
2019-04-10T03:01:15.691Z,18.80
2019-04-10T03:03:44.692Z,17.27
2019-04-10T03:06:13.368Z,18.27
2019-04-10T03:08:54.949Z,16.37
2019-04-10T03:11:12.185Z,17.17
2019-04-10T03:13:40.171Z,15.80
2019-04-10T03:16:07.663Z,16.40
2019-04-10T03:18:35.103Z,16.67
2019-04-10T03:21:02.800Z,16.30
2019-04-10T03:23:30.010Z,15.87
2019-04-10T03:25:57.357Z,15.47
2019-04-10T03:28:25.026Z,16.67
2019-04-10T03:30:53.913Z,15.73
2019-04-10T03:33:47.292Z,16.00
2019-04-10T03:36:13.647Z,14.83
2019-04-10T03:38:54.249Z,14.87
2019-04-10T03:41:10.171Z,15.10
2019-04-10T03:43:38.200Z,15.33
2019-04-10T03:46:05.782Z,14.50
2019-04-10T03:48:33.408Z,14.27
2019-04-10T03:51:00.739Z,15.10
2019-04-10T03:53:28.102Z,14.57
2019-04-10T03:55:55.350Z,15.23
2019-04-10T03:58:23.137Z,14.63
2019-04-10T04:00:50.658Z,14.07
2019-04-10T04:03:18.326Z,14.97
2019-04-10T04:05:46.734Z,14.63
2019-04-10T04:08:15.115Z,14.60
2019-04-10T04:10:42.690Z,15.17
2019-04-10T04:13:11.080Z,14.07
2019-04-10T04:15:38.426Z,14.60
2019-04-10T04:18:05.785Z,13.97
2019-04-10T04:20:33.143Z,13.93
2019-04-10T04:23:01.369Z,14.27
2019-04-10T04:25:28.845Z,14.00
2019-04-10T04:27:56.632Z,14.40
2019-04-10T04:30:24.664Z,14.20
2019-04-10T04:32:51.850Z,14.50
2019-04-10T04:35:19.969Z,13.87
2019-04-10T04:37:48.239Z,15.00
2019-04-10T04:40:15.633Z,14.07
2019-04-10T04:42:42.795Z,13.10
2019-04-10T04:45:10.789Z,14.60
2019-04-10T04:47:39.165Z,13.77
2019-04-10T04:50:07.723Z,14.50
2019-04-10T04:52:35.092Z,14.87
2019-04-10T04:55:03.952Z,13.47
2019-04-10T04:57:34.160Z,15.30
2019-04-10T05:00:01.110Z,13.63
2019-04-10T05:02:28.476Z,13.83
2019-04-10T05:04:55.639Z,13.97
2019-04-10T05:07:22.805Z,15.00
2019-04-10T05:09:50.424Z,13.53
2019-04-10T05:12:18.104Z,15.67
2019-04-10T05:14:46.205Z,13.80
2019-04-10T05:17:16.389Z,14.63
2019-04-10T05:19:42.681Z,15.00
2019-04-10T05:22:10.182Z,14.07
2019-04-10T05:24:38.404Z,14.47
2019-04-10T05:27:05.791Z,14.80
2019-04-10T05:29:33.127Z,14.30
2019-04-10T05:32:00.959Z,14.77
2019-04-10T05:34:30.674Z,14.43
2019-04-10T05:37:07.336Z,14.00
2019-04-10T05:39:43.132Z,14.93
2019-04-10T05:42:06.423Z,15.60
2019-04-10T05:44:34.090Z,14.90
2019-04-10T05:47:01.481Z,15.17
2019-04-10T05:49:31.290Z,15.03
2019-04-10T05:52:04.216Z,16.65
2019-04-10T05:54:33.328Z,15.47
2019-04-10T05:57:01.497Z,16.23
2019-04-10T05:59:29.908Z,14.93
2019-04-10T06:01:57.554Z,14.27
2019-04-10T06:04:25.502Z,15.83
2019-04-10T06:06:54.831Z,15.30
2019-04-10T06:09:24.698Z,14.77
2019-04-10T06:11:57.602Z,15.07
2019-04-10T06:14:26.205Z,15.23
2019-04-10T06:16:55.052Z,15.07
2019-04-10T06:19:22.404Z,14.63
2019-04-10T06:21:50.380Z,15.27
2019-04-10T06:24:18.369Z,15.53
2019-04-10T06:26:46.002Z,15.30
2019-04-10T06:29:13.471Z,14.63
2019-04-10T06:31:41.060Z,14.70
2019-04-10T06:34:08.914Z,15.37
2019-04-10T06:36:37.478Z,16.53
2019-04-10T06:39:06.706Z,15.57
2019-04-10T06:41:34.874Z,15.30
2019-04-10T06:44:05.675Z,15.93
2019-04-10T06:46:35.440Z,15.47
2019-04-10T06:49:03.219Z,15.30
2019-04-10T06:51:31.345Z,15.40
2019-04-10T06:54:05.065Z,16.00
2019-04-10T06:56:31.287Z,15.27
2019-04-10T06:58:58.681Z,15.03
2019-04-10T07:01:37.182Z,16.63
2019-04-10T07:04:03.576Z,16.20
2019-04-10T07:06:44.801Z,16.20
2019-04-10T07:08:59.820Z,16.63
2019-04-10T07:11:31.399Z,17.33
2019-04-10T07:13:58.533Z,16.83
2019-04-10T07:16:29.980Z,16.60
2019-04-10T07:18:58.524Z,16.60
2019-04-10T07:21:30.723Z,16.93
2019-04-10T07:24:01.189Z,16.63
2019-04-10T07:26:36.254Z,16.13
2019-04-10T07:28:58.483Z,16.33
2019-04-10T07:31:34.804Z,17.03
2019-04-10T07:34:01.303Z,16.57
2019-04-10T07:36:32.876Z,16.83
2019-04-10T07:39:01.464Z,16.77
2019-04-10T07:41:29.361Z,16.90
2019-04-10T07:43:57.321Z,16.00
2019-04-10T07:46:26.234Z,16.70
2019-04-10T07:48:54.525Z,17.20
2019-04-10T07:51:21.685Z,16.40
2019-04-10T07:53:49.217Z,16.57
2019-04-10T07:56:20.390Z,17.27
2019-04-10T07:58:46.340Z,16.73
2019-04-10T08:01:14.069Z,16.07
2019-04-10T08:03:41.711Z,16.90
2019-04-10T08:06:09.087Z,16.17
2019-04-10T08:08:36.422Z,16.57
2019-04-10T08:11:05.140Z,16.63
2019-04-10T08:13:33.805Z,18.43
2019-04-10T08:16:01.346Z,16.43
2019-04-10T08:18:29.541Z,15.57
2019-04-10T08:20:57.319Z,15.83
2019-04-10T08:23:25.902Z,16.83
2019-04-10T08:25:53.753Z,17.37
2019-04-10T08:28:22.028Z,16.73
2019-04-10T08:30:50.406Z,15.90
2019-04-10T08:33:17.802Z,15.63
2019-04-10T08:35:45.456Z,15.10
2019-04-10T08:38:15.433Z,17.30
2019-04-10T08:40:46.765Z,18.33
2019-04-10T08:43:14.133Z,15.97
2019-04-10T08:45:47.138Z,17.20
2019-04-10T08:48:13.391Z,16.57
2019-04-10T08:50:41.860Z,17.00
2019-04-10T08:53:09.619Z,16.67
2019-04-10T08:55:37.842Z,15.60
2019-04-10T08:58:06.187Z,15.97
2019-04-10T09:00:34.410Z,16.47
2019-04-10T09:03:02.437Z,16.50
2019-04-10T09:05:30.015Z,16.03
2019-04-10T09:07:57.864Z,17.00
2019-04-10T09:10:26.049Z,16.60
2019-04-10T09:12:54.561Z,15.80
2019-04-10T09:15:23.535Z,16.17
2019-04-10T09:17:51.453Z,16.93
2019-04-10T09:20:18.726Z,16.63
2019-04-10T09:23:10.357Z,25.53
2019-04-10T09:25:16.542Z,17.70
2019-04-10T09:27:46.303Z,15.80
2019-04-10T09:30:14.687Z,16.23
2019-04-10T09:32:42.393Z,15.80
2019-04-10T09:35:10.162Z,16.10
2019-04-10T09:37:37.957Z,15.37
2019-04-10T09:40:07.963Z,14.90
2019-04-10T09:42:35.554Z,14.90
2019-04-10T09:45:04.757Z,15.87
2019-04-10T09:47:32.574Z,13.77
2019-04-10T09:49:59.858Z,14.53
2019-04-10T09:52:27.854Z,14.93
2019-04-10T09:54:55.357Z,14.70
2019-04-10T09:57:22.552Z,14.40
2019-04-10T09:59:50.534Z,13.67
2019-04-10T10:02:17.882Z,14.03
2019-04-10T10:04:46.003Z,14.63
2019-04-10T10:07:14.355Z,14.47
2019-04-10T10:09:41.689Z,16.20
2019-04-10T10:12:09.613Z,15.40
2019-04-10T10:14:37.960Z,14.30
2019-04-10T10:17:06.530Z,15.07
2019-04-10T10:19:34.259Z,14.90
2019-04-10T10:22:03.602Z,15.97
2019-04-10T10:24:30.993Z,14.73
2019-04-10T10:26:58.327Z,15.27
2019-04-10T10:29:25.973Z,13.30
2019-04-10T10:32:04.653Z,14.00
2019-04-10T10:34:32.097Z,14.67
2019-04-10T10:37:00.242Z,15.17
2019-04-10T10:39:28.564Z,14.37
2019-04-10T10:41:56.504Z,13.77
2019-04-10T10:44:23.900Z,14.50
2019-04-10T10:46:51.583Z,15.17
2019-04-10T10:49:18.822Z,14.77
2019-04-10T10:51:46.770Z,14.53
2019-04-10T10:54:14.076Z,14.67
2019-04-10T10:56:42.607Z,14.40
2019-04-10T10:59:11.295Z,14.80
2019-04-10T11:01:40.003Z,14.47
2019-04-10T11:04:07.291Z,13.90
2019-04-10T11:06:36.346Z,13.13
2019-04-10T11:09:10.123Z,13.13
2019-04-10T11:11:37.414Z,14.17
2019-04-10T11:14:06.069Z,13.40
2019-04-10T11:16:33.903Z,14.20
2019-04-10T11:19:04.755Z,13.20
2019-04-10T11:21:32.822Z,12.83
2019-04-10T11:24:01.018Z,13.80
2019-04-10T11:26:30.221Z,12.90
2019-04-10T11:28:58.237Z,12.47
2019-04-10T11:31:25.781Z,13.03
2019-04-10T11:33:55.861Z,13.00
2019-04-10T11:36:23.612Z,11.37
2019-04-10T11:38:52.470Z,13.67
2019-04-10T11:41:21.022Z,13.13
2019-04-10T11:43:50.143Z,13.30
2019-04-10T11:46:17.958Z,12.07
2019-04-10T11:48:46.856Z,12.30
2019-04-10T11:51:16.146Z,13.10
2019-04-10T11:53:47.674Z,12.23
2019-04-10T11:56:13.664Z,13.83
2019-04-10T11:58:49.394Z,13.03
2019-04-10T12:01:10.818Z,11.87
2019-04-10T12:03:43.412Z,12.60
2019-04-10T12:06:08.065Z,12.23
2019-04-10T12:09:04.231Z,11.80
2019-04-10T12:11:10.966Z,12.93
2019-04-10T12:13:35.103Z,12.73
2019-04-10T12:16:03.153Z,13.90
2019-04-10T12:18:30.918Z,12.53
2019-04-10T12:21:07.356Z,12.73
2019-04-10T12:23:36.892Z,12.30
2019-04-10T12:26:10.322Z,11.10
2019-04-10T12:28:38.212Z,11.17
2019-04-10T12:31:06.044Z,11.93
2019-04-10T12:33:33.970Z,12.57
2019-04-10T12:36:02.465Z,12.00
2019-04-10T12:38:31.970Z,10.97
2019-04-10T12:40:59.718Z,11.67
2019-04-10T12:43:27.473Z,12.57
2019-04-10T12:45:54.842Z,12.00
2019-04-10T12:48:23.083Z,12.10
2019-04-10T12:50:50.089Z,12.30
2019-04-10T12:53:19.057Z,11.63
2019-04-10T12:55:47.707Z,12.07
2019-04-10T12:58:17.589Z,12.37
2019-04-10T13:00:45.551Z,11.03
2019-04-10T13:03:18.842Z,11.97
2019-04-10T13:05:46.456Z,12.77
2019-04-10T13:08:21.172Z,11.87
2019-04-10T13:10:43.968Z,12.37
2019-04-10T13:13:13.665Z,12.57
2019-04-10T13:15:41.444Z,11.87
2019-04-10T13:18:12.093Z,12.77
2019-04-10T13:20:41.981Z,11.17
2019-04-10T13:23:10.786Z,11.80
2019-04-10T13:25:41.369Z,11.37
2019-04-10T13:28:12.036Z,11.40
2019-04-10T13:30:48.016Z,11.93
2019-04-10T13:33:09.012Z,11.83
2019-04-10T13:35:37.871Z,11.80
2019-04-10T13:38:08.832Z,10.27
2019-04-10T13:40:37.488Z,11.60
2019-04-10T13:43:11.756Z,12.33
2019-04-10T13:45:39.451Z,11.00
2019-04-10T13:48:08.086Z,11.07
2019-04-10T13:50:39.026Z,12.53
2019-04-10T13:53:11.332Z,11.00
2019-04-10T13:55:40.698Z,11.23
2019-04-10T13:58:08.905Z,11.27
2019-04-10T14:00:42.990Z,11.83
2019-04-10T14:03:12.244Z,12.23
2019-04-10T14:05:41.088Z,12.17
2019-04-10T14:08:10.334Z,11.47
2019-04-10T14:10:40.788Z,11.13
2019-04-10T14:13:07.476Z,12.40
2019-04-10T14:15:35.903Z,11.33
2019-04-10T14:18:04.106Z,10.83
2019-04-10T14:20:31.453Z,10.73
2019-04-10T14:23:22.274Z,10.23
2019-04-10T14:26:12.523Z,9.97
2019-04-10T14:28:40.837Z,9.80
2019-04-10T14:31:16.352Z,11.20
2019-04-10T14:33:44.805Z,10.37
2019-04-10T14:36:12.438Z,10.67
2019-04-10T14:38:39.695Z,10.10
2019-04-10T14:41:06.993Z,11.60
2019-04-10T14:43:34.442Z,12.30
2019-04-10T14:46:03.725Z,11.50
2019-04-10T14:48:32.119Z,11.37
2019-04-10T14:50:59.872Z,12.50
2019-04-10T14:53:27.234Z,11.93
2019-04-10T14:55:54.823Z,11.43
2019-04-10T14:58:28.091Z,12.10
2019-04-10T15:00:52.745Z,11.13
2019-04-10T15:03:20.889Z,11.30
2019-04-10T15:05:51.498Z,11.30
2019-04-10T15:08:17.768Z,11.67
2019-04-10T15:10:46.681Z,11.77
2019-04-10T15:13:19.242Z,11.70
2019-04-10T15:15:44.814Z,11.33
2019-04-10T15:18:12.906Z,12.67
2019-04-10T15:20:41.822Z,12.27
2019-04-10T15:23:09.805Z,11.87
2019-04-10T15:25:37.442Z,11.93
2019-04-10T15:28:04.744Z,11.43
2019-04-10T15:30:32.838Z,11.80
2019-04-10T15:33:00.448Z,11.50
2019-04-10T15:35:28.525Z,11.07
2019-04-10T15:37:55.946Z,11.17
2019-04-10T15:40:26.183Z,11.97
2019-04-10T15:42:54.532Z,10.27
2019-04-10T15:45:22.104Z,12.10
2019-04-10T15:47:54.125Z,11.27
2019-04-10T15:50:18.593Z,11.00
2019-04-10T15:52:48.369Z,11.33
2019-04-10T15:55:15.625Z,11.17
2019-04-10T15:57:50.725Z,10.33
2019-04-10T16:00:13.046Z,10.70
2019-04-10T16:02:41.532Z,10.27
2019-04-10T16:05:09.248Z,10.40
2019-04-10T16:07:36.606Z,10.67
2019-04-10T16:10:25.620Z,11.00
2019-04-10T16:12:53.538Z,10.00
2019-04-10T16:15:21.809Z,10.27
2019-04-10T16:17:57.030Z,10.57
2019-04-10T16:20:29.445Z,10.63
2019-04-10T16:23:10.059Z,10.93
2019-04-10T16:25:38.599Z,11.93
2019-04-10T16:28:06.344Z,11.07
2019-04-10T16:30:34.949Z,11.03
2019-04-10T16:33:02.936Z,11.87
2019-04-10T16:35:32.820Z,11.77
2019-04-10T16:38:00.196Z,11.60
2019-04-10T16:40:27.743Z,11.03
2019-04-10T16:42:55.483Z,12.40
2019-04-10T16:45:23.019Z,12.10
2019-04-10T16:47:50.580Z,11.57
2019-04-10T16:50:17.982Z,12.43
2019-04-10T16:52:47.358Z,11.40
2019-04-10T16:55:15.645Z,11.97
2019-04-10T16:57:43.127Z,12.80
2019-04-10T17:00:14.165Z,11.90
2019-04-10T17:02:42.311Z,11.50
2019-04-10T17:05:10.234Z,11.07
2019-04-10T17:07:37.726Z,11.57
2019-04-10T17:10:16.012Z,9.93
2019-04-10T17:12:37.806Z,11.43
2019-04-10T17:15:06.587Z,10.30
2019-04-10T17:17:34.617Z,10.70
2019-04-10T17:20:02.888Z,10.40
2019-04-10T17:22:37.326Z,10.20
2019-04-10T17:24:59.917Z,10.00
2019-04-10T17:27:27.766Z,11.13
2019-04-10T17:29:56.548Z,10.07
2019-04-10T17:32:24.867Z,10.23
2019-04-10T17:34:52.102Z,10.33
2019-04-10T17:37:19.602Z,10.20
2019-04-10T17:39:47.326Z,10.73
2019-04-10T17:42:14.754Z,11.07
2019-04-10T17:44:42.270Z,10.97
2019-04-10T17:47:10.000Z,10.27
2019-04-10T17:49:37.403Z,10.77
2019-04-10T17:52:06.189Z,11.13
2019-04-10T17:54:34.596Z,10.43
2019-04-10T17:57:02.463Z,10.00
2019-04-10T17:59:30.244Z,10.43
2019-04-10T18:02:01.062Z,10.60
2019-04-10T18:04:29.772Z,10.13
2019-04-10T18:06:57.513Z,11.20
2019-04-10T18:09:26.911Z,10.93
2019-04-10T18:11:54.515Z,11.00
2019-04-10T18:14:22.767Z,11.53
2019-04-10T18:16:50.596Z,11.00
2019-04-10T18:19:19.017Z,10.57
2019-04-10T18:21:46.436Z,11.40
2019-04-10T18:24:13.940Z,10.73
2019-04-10T18:26:41.666Z,11.07
2019-04-10T18:29:09.993Z,9.77
2019-04-10T18:31:37.386Z,11.10
2019-04-10T18:34:08.096Z,10.30
2019-04-10T18:36:34.138Z,11.13
2019-04-10T18:39:01.860Z,11.60
2019-04-10T18:41:29.988Z,10.50
2019-04-10T18:43:58.476Z,10.10
2019-04-10T18:46:26.994Z,10.37
2019-04-10T18:48:54.903Z,11.40
2019-04-10T18:51:22.232Z,10.67
2019-04-10T18:53:51.156Z,10.20
2019-04-10T18:56:18.900Z,10.03
2019-04-10T18:59:00.519Z,9.90
2019-04-10T19:01:51.310Z,10.10
2019-04-10T19:04:39.148Z,10.23
2019-04-10T19:07:07.088Z,10.67
2019-04-10T19:09:36.672Z,10.43
2019-04-10T19:12:04.549Z,11.23
2019-04-10T19:14:34.945Z,10.30
2019-04-10T19:17:02.543Z,10.60
2019-04-10T19:19:29.940Z,10.23
2019-04-10T19:21:57.202Z,10.83
2019-04-10T19:24:25.955Z,10.17
2019-04-10T19:26:53.814Z,10.83
2019-04-10T19:29:21.474Z,11.10
2019-04-10T19:31:52.306Z,10.83
2019-04-10T19:34:21.025Z,11.00
2019-04-10T19:36:48.624Z,11.30
2019-04-10T19:39:16.136Z,10.57
2019-04-10T19:41:43.408Z,10.00
2019-04-10T19:44:10.987Z,10.40
2019-04-10T19:46:38.248Z,10.23
2019-04-10T19:49:06.048Z,10.80
2019-04-10T19:51:34.375Z,9.80
2019-04-10T19:54:04.383Z,9.23
2019-04-10T19:56:30.908Z,9.73
2019-04-10T19:58:58.659Z,9.50
2019-04-10T20:01:28.563Z,10.87
2019-04-10T20:03:56.399Z,9.33
2019-04-10T20:06:24.263Z,9.47
2019-04-10T20:08:52.661Z,8.50
2019-04-10T20:11:31.307Z,9.37
2019-04-10T20:13:49.241Z,9.10
2019-04-10T20:16:17.391Z,9.17
2019-04-10T20:18:45.267Z,9.17
2019-04-10T20:21:12.866Z,9.40
2019-04-10T20:23:40.405Z,8.83
2019-04-10T20:26:07.978Z,8.53
2019-04-10T20:28:36.510Z,9.60
2019-04-10T20:31:06.997Z,9.37
2019-04-10T20:33:34.668Z,8.57
2019-04-10T20:36:02.131Z,9.00
2019-04-10T20:38:31.827Z,9.47
2019-04-10T20:40:58.804Z,7.67
2019-04-10T20:43:28.988Z,10.07
2019-04-10T20:45:55.930Z,8.90
2019-04-10T20:48:24.439Z,9.20
2019-04-10T20:50:52.308Z,9.47
2019-04-10T20:53:19.985Z,8.97
2019-04-10T20:55:48.191Z,9.50
2019-04-10T20:58:15.615Z,8.70
2019-04-10T21:00:43.243Z,8.80
2019-04-10T21:03:11.437Z,8.30
2019-04-10T21:05:38.766Z,8.90
2019-04-10T21:08:06.208Z,9.30
2019-04-10T21:10:33.661Z,9.33
2019-04-10T21:13:01.170Z,8.77
2019-04-10T21:15:28.505Z,9.50
2019-04-10T21:17:56.966Z,8.63
2019-04-10T21:20:25.672Z,9.57
2019-04-10T21:22:53.453Z,9.23
2019-04-10T21:25:21.098Z,9.50
2019-04-10T21:27:50.370Z,9.20
2019-04-10T21:30:37.895Z,10.20
2019-04-10T21:33:24.802Z,10.17
2019-04-10T21:35:52.156Z,10.00
2019-04-10T21:38:19.424Z,9.67
2019-04-10T21:40:47.405Z,10.30
2019-04-10T21:43:14.805Z,10.73
2019-04-10T21:45:43.405Z,11.00
2019-04-10T21:48:11.221Z,12.13
2019-04-10T21:50:38.395Z,10.80
2019-04-10T21:53:06.152Z,10.40
2019-04-10T21:55:33.673Z,12.20
2019-04-10T21:58:01.227Z,11.43
2019-04-10T22:00:46.710Z,11.67
2019-04-10T22:03:17.359Z,10.57
2019-04-10T22:05:47.240Z,12.33
2019-04-10T22:08:25.331Z,11.50
2019-04-10T22:10:53.071Z,11.23
2019-04-10T22:13:21.844Z,11.07
2019-04-10T22:15:49.779Z,11.20
2019-04-10T22:18:17.161Z,11.77
2019-04-10T22:20:44.670Z,11.00
2019-04-10T22:23:12.054Z,12.30
2019-04-10T22:25:39.618Z,12.23
2019-04-10T22:28:08.117Z,12.23
2019-04-10T22:30:35.859Z,11.70
2019-04-10T22:33:03.556Z,12.87
2019-04-10T22:35:31.382Z,12.07
2019-04-10T22:37:58.913Z,12.60
2019-04-10T22:40:26.408Z,12.77
2019-04-10T22:42:53.977Z,13.13
2019-04-10T22:45:30.764Z,12.43
2019-04-10T22:47:58.612Z,12.63
2019-04-10T22:50:27.397Z,10.63
2019-04-10T22:52:55.177Z,13.43
2019-04-10T22:55:23.835Z,14.03
2019-04-10T22:57:51.226Z,14.03
2019-04-10T23:00:25.953Z,13.70
2019-04-10T23:02:55.029Z,13.37
2019-04-10T23:05:22.688Z,14.37
2019-04-10T23:07:51.323Z,14.70
2019-04-10T23:10:19.170Z,14.67
2019-04-10T23:12:56.690Z,13.80
2019-04-10T23:15:16.018Z,13.70
2019-04-10T23:17:43.567Z,13.27
2019-04-10T23:20:11.547Z,13.97
2019-04-10T23:22:38.976Z,14.67
2019-04-10T23:25:07.878Z,14.63
2019-04-10T23:27:35.643Z,14.20
2019-04-10T23:30:06.554Z,12.80
2019-04-10T23:32:33.926Z,14.73
2019-04-10T23:35:01.613Z,13.40
2019-04-10T23:37:31.340Z,14.77
2019-04-10T23:39:58.934Z,14.07
2019-04-10T23:42:28.228Z,13.80
2019-04-10T23:44:55.452Z,15.10
2019-04-10T23:47:22.813Z,14.20
2019-04-10T23:49:50.378Z,13.37
2019-04-10T23:52:17.978Z,14.03
2019-04-10T23:54:51.427Z,14.07
2019-04-10T23:57:19.264Z,14.03
2019-04-10T23:59:46.851Z,13.70
